sensor_id;sensor_type;location;lat;lon;timestamp;P1;durP1;ratioP1;P2;durP2;ratioP2
22388;SDS011;11362;48.102;11.620;2024-01-15T00:00:26;7.40;;;2.33;;
22388;SDS011;11362;48.102;11.620;2024-01-15T00:02:52;2.80;;;2.27;;
22388;SDS011;11362;48.102;11.620;2024-01-15T00:05:17;3.47;;;2.63;;
22388;SDS011;11362;48.102;11.620;2024-01-15T00:07:42;6.93;;;2.57;;
22388;SDS011;11362;48.102;11.620;2024-01-15T00:10:08;5.00;;;2.40;;
22388;SDS011;11362;48.102;11.620;2024-01-15T00:12:33;6.00;;;2.70;;
22388;SDS011;11362;48.102;11.620;2024-01-15T00:14:58;3.87;;;2.30;;
22388;SDS011;11362;48.102;11.620;2024-01-15T00:17:24;4.43;;;2.50;;
22388;SDS011;11362;48.102;11.620;2024-01-15T00:19:49;3.80;;;2.30;;
22388;SDS011;11362;48.102;11.620;2024-01-15T00:22:14;3.17;;;2.40;;
22388;SDS011;11362;48.102;11.620;2024-01-15T00:24:40;4.93;;;2.37;;
22388;SDS011;11362;48.102;11.620;2024-01-15T00:27:05;3.27;;;2.60;;
22388;SDS011;11362;48.102;11.620;2024-01-15T00:29:30;2.37;;;2.27;;
22388;SDS011;11362;48.102;11.620;2024-01-15T00:31:55;2.17;;;2.00;;
22388;SDS011;11362;48.102;11.620;2024-01-15T00:34:21;2.70;;;2.20;;
22388;SDS011;11362;48.102;11.620;2024-01-15T00:36:46;3.73;;;2.67;;
22388;SDS011;11362;48.102;11.620;2024-01-15T00:39:11;4.90;;;2.13;;
22388;SDS011;11362;48.102;11.620;2024-01-15T00:41:37;5.80;;;2.07;;
22388;SDS011;11362;48.102;11.620;2024-01-15T00:44:02;2.30;;;2.20;;
22388;SDS011;11362;48.102;11.620;2024-01-15T00:46:27;2.80;;;2.27;;
22388;SDS011;11362;48.102;11.620;2024-01-15T00:48:53;2.70;;;2.20;;
22388;SDS011;11362;48.102;11.620;2024-01-15T00:51:18;3.87;;;2.53;;
22388;SDS011;11362;48.102;11.620;2024-01-15T00:53:43;2.40;;;2.20;;
22388;SDS011;11362;48.102;11.620;2024-01-15T00:56:08;2.77;;;2.10;;
22388;SDS011;11362;48.102;11.620;2024-01-15T00:58:34;3.13;;;1.93;;
22388;SDS011;11362;48.102;11.620;2024-01-15T01:00:59;3.33;;;2.00;;
22388;SDS011;11362;48.102;11.620;2024-01-15T01:03:24;2.13;;;2.03;;
22388;SDS011;11362;48.102;11.620;2024-01-15T01:05:50;2.10;;;2.00;;
22388;SDS011;11362;48.102;11.620;2024-01-15T01:08:15;3.97;;;2.07;;
22388;SDS011;11362;48.102;11.620;2024-01-15T01:10:41;1.80;;;1.70;;
22388;SDS011;11362;48.102;11.620;2024-01-15T01:13:06;2.47;;;1.87;;
22388;SDS011;11362;48.102;11.620;2024-01-15T01:15:31;1.70;;;1.60;;
22388;SDS011;11362;48.102;11.620;2024-01-15T01:17:57;3.50;;;2.20;;
22388;SDS011;11362;48.102;11.620;2024-01-15T01:20:22;4.67;;;2.13;;
22388;SDS011;11362;48.102;11.620;2024-01-15T01:22:47;2.40;;;2.20;;
22388;SDS011;11362;48.102;11.620;2024-01-15T01:25:12;3.47;;;2.07;;
22388;SDS011;11362;48.102;11.620;2024-01-15T01:27:38;2.13;;;1.70;;
22388;SDS011;11362;48.102;11.620;2024-01-15T01:30:03;3.47;;;1.90;;
22388;SDS011;11362;48.102;11.620;2024-01-15T01:32:29;2.17;;;1.50;;
22388;SDS011;11362;48.102;11.620;2024-01-15T01:34:55;1.80;;;1.70;;
22388;SDS011;11362;48.102;11.620;2024-01-15T01:37:20;2.67;;;1.93;;
22388;SDS011;11362;48.102;11.620;2024-01-15T01:39:45;2.50;;;2.30;;
22388;SDS011;11362;48.102;11.620;2024-01-15T01:42:11;1.90;;;1.80;;
22388;SDS011;11362;48.102;11.620;2024-01-15T01:44:37;1.70;;;1.60;;
22388;SDS011;11362;48.102;11.620;2024-01-15T01:47:02;1.40;;;1.30;;
22388;SDS011;11362;48.102;11.620;2024-01-15T01:49:29;2.10;;;2.00;;
22388;SDS011;11362;48.102;11.620;2024-01-15T01:51:58;2.67;;;1.80;;
22388;SDS011;11362;48.102;11.620;2024-01-15T01:54:25;2.60;;;1.90;;
22388;SDS011;11362;48.102;11.620;2024-01-15T01:56:53;1.90;;;1.80;;
22388;SDS011;11362;48.102;11.620;2024-01-15T01:59:18;1.90;;;1.80;;
22388;SDS011;11362;48.102;11.620;2024-01-15T02:01:44;1.90;;;1.80;;
22388;SDS011;11362;48.102;11.620;2024-01-15T02:04:10;2.17;;;2.00;;
22388;SDS011;11362;48.102;11.620;2024-01-15T02:06:36;1.87;;;1.77;;
22388;SDS011;11362;48.102;11.620;2024-01-15T02:09:02;2.23;;;2.00;;
22388;SDS011;11362;48.102;11.620;2024-01-15T02:11:28;2.10;;;2.00;;
22388;SDS011;11362;48.102;11.620;2024-01-15T02:13:54;2.07;;;1.97;;
22388;SDS011;11362;48.102;11.620;2024-01-15T02:16:19;2.03;;;1.83;;
22388;SDS011;11362;48.102;11.620;2024-01-15T02:18:45;2.43;;;2.23;;
22388;SDS011;11362;48.102;11.620;2024-01-15T02:21:11;1.80;;;1.70;;
22388;SDS011;11362;48.102;11.620;2024-01-15T02:23:37;2.80;;;1.67;;
22388;SDS011;11362;48.102;11.620;2024-01-15T02:26:03;1.60;;;1.50;;
22388;SDS011;11362;48.102;11.620;2024-01-15T02:28:29;1.67;;;1.57;;
22388;SDS011;11362;48.102;11.620;2024-01-15T02:30:55;2.17;;;1.60;;
22388;SDS011;11362;48.102;11.620;2024-01-15T02:33:20;1.40;;;1.40;;
22388;SDS011;11362;48.102;11.620;2024-01-15T02:35:46;2.10;;;2.00;;
22388;SDS011;11362;48.102;11.620;2024-01-15T02:38:11;1.80;;;1.70;;
22388;SDS011;11362;48.102;11.620;2024-01-15T02:40:37;1.93;;;1.80;;
22388;SDS011;11362;48.102;11.620;2024-01-15T02:43:03;1.80;;;1.70;;
22388;SDS011;11362;48.102;11.620;2024-01-15T02:45:29;1.90;;;1.80;;
22388;SDS011;11362;48.102;11.620;2024-01-15T02:47:54;2.30;;;1.90;;
22388;SDS011;11362;48.102;11.620;2024-01-15T02:50:19;2.30;;;2.10;;
22388;SDS011;11362;48.102;11.620;2024-01-15T02:52:45;2.10;;;1.73;;
22388;SDS011;11362;48.102;11.620;2024-01-15T02:55:10;2.03;;;1.93;;
22388;SDS011;11362;48.102;11.620;2024-01-15T02:57:35;1.60;;;1.50;;
22388;SDS011;11362;48.102;11.620;2024-01-15T03:00:00;2.07;;;1.87;;
22388;SDS011;11362;48.102;11.620;2024-01-15T03:02:26;2.30;;;2.10;;
22388;SDS011;11362;48.102;11.620;2024-01-15T03:04:51;2.27;;;2.17;;
22388;SDS011;11362;48.102;11.620;2024-01-15T03:07:17;2.77;;;2.03;;
22388;SDS011;11362;48.102;11.620;2024-01-15T03:09:42;2.20;;;1.87;;
22388;SDS011;11362;48.102;11.620;2024-01-15T03:12:07;2.20;;;2.00;;
22388;SDS011;11362;48.102;11.620;2024-01-15T03:14:33;2.13;;;2.00;;
22388;SDS011;11362;48.102;11.620;2024-01-15T03:16:58;1.63;;;1.50;;
22388;SDS011;11362;48.102;11.620;2024-01-15T03:19:24;1.80;;;1.70;;
22388;SDS011;11362;48.102;11.620;2024-01-15T03:21:49;1.73;;;1.63;;
22388;SDS011;11362;48.102;11.620;2024-01-15T03:24:14;1.80;;;1.70;;
22388;SDS011;11362;48.102;11.620;2024-01-15T03:26:39;2.23;;;1.80;;
22388;SDS011;11362;48.102;11.620;2024-01-15T03:29:05;2.00;;;1.90;;
22388;SDS011;11362;48.102;11.620;2024-01-15T03:31:31;2.07;;;1.87;;
22388;SDS011;11362;48.102;11.620;2024-01-15T03:33:56;1.70;;;1.60;;
22388;SDS011;11362;48.102;11.620;2024-01-15T03:36:21;1.77;;;1.67;;
22388;SDS011;11362;48.102;11.620;2024-01-15T03:38:47;2.17;;;1.70;;
22388;SDS011;11362;48.102;11.620;2024-01-15T03:41:12;1.70;;;1.60;;
22388;SDS011;11362;48.102;11.620;2024-01-15T03:43:37;1.87;;;1.77;;
22388;SDS011;11362;48.102;11.620;2024-01-15T03:46:03;2.13;;;2.03;;
22388;SDS011;11362;48.102;11.620;2024-01-15T03:48:28;2.23;;;1.87;;
22388;SDS011;11362;48.102;11.620;2024-01-15T03:50:53;2.03;;;1.93;;
22388;SDS011;11362;48.102;11.620;2024-01-15T03:53:19;2.00;;;1.80;;
22388;SDS011;11362;48.102;11.620;2024-01-15T03:55:44;1.73;;;1.60;;
22388;SDS011;11362;48.102;11.620;2024-01-15T03:58:09;2.47;;;1.77;;
22388;SDS011;11362;48.102;11.620;2024-01-15T04:00:35;2.60;;;2.00;;
22388;SDS011;11362;48.102;11.620;2024-01-15T04:03:00;2.37;;;1.60;;
22388;SDS011;11362;48.102;11.620;2024-01-15T04:05:26;1.50;;;1.40;;
22388;SDS011;11362;48.102;11.620;2024-01-15T04:07:51;2.10;;;2.00;;
22388;SDS011;11362;48.102;11.620;2024-01-15T04:10:16;2.27;;;2.07;;
22388;SDS011;11362;48.102;11.620;2024-01-15T04:12:42;1.90;;;1.80;;
22388;SDS011;11362;48.102;11.620;2024-01-15T04:15:07;2.00;;;1.80;;
22388;SDS011;11362;48.102;11.620;2024-01-15T04:17:32;1.87;;;1.67;;
22388;SDS011;11362;48.102;11.620;2024-01-15T04:19:58;2.20;;;1.93;;
22388;SDS011;11362;48.102;11.620;2024-01-15T04:22:23;3.43;;;1.80;;
22388;SDS011;11362;48.102;11.620;2024-01-15T04:24:49;2.10;;;2.00;;
22388;SDS011;11362;48.102;11.620;2024-01-15T04:27:14;1.70;;;1.60;;
22388;SDS011;11362;48.102;11.620;2024-01-15T04:29:39;1.63;;;1.53;;
22388;SDS011;11362;48.102;11.620;2024-01-15T04:32:05;2.03;;;1.60;;
22388;SDS011;11362;48.102;11.620;2024-01-15T04:34:30;1.90;;;1.80;;
22388;SDS011;11362;48.102;11.620;2024-01-15T04:36:56;2.30;;;2.10;;
22388;SDS011;11362;48.102;11.620;2024-01-15T04:39:21;2.07;;;1.90;;
22388;SDS011;11362;48.102;11.620;2024-01-15T04:41:46;2.47;;;1.73;;
22388;SDS011;11362;48.102;11.620;2024-01-15T04:44:11;1.70;;;1.60;;
22388;SDS011;11362;48.102;11.620;2024-01-15T04:46:37;1.83;;;1.73;;
22388;SDS011;11362;48.102;11.620;2024-01-15T04:49:02;3.00;;;1.90;;
22388;SDS011;11362;48.102;11.620;2024-01-15T04:51:27;1.90;;;1.80;;
22388;SDS011;11362;48.102;11.620;2024-01-15T04:53:52;1.60;;;1.50;;
22388;SDS011;11362;48.102;11.620;2024-01-15T04:56:18;1.70;;;1.60;;
22388;SDS011;11362;48.102;11.620;2024-01-15T04:58:43;1.53;;;1.43;;
22388;SDS011;11362;48.102;11.620;2024-01-15T05:01:08;2.07;;;1.70;;
22388;SDS011;11362;48.102;11.620;2024-01-15T05:03:34;2.50;;;1.70;;
22388;SDS011;11362;48.102;11.620;2024-01-15T05:05:59;3.20;;;1.53;;
22388;SDS011;11362;48.102;11.620;2024-01-15T05:08:24;1.60;;;1.50;;
22388;SDS011;11362;48.102;11.620;2024-01-15T05:10:50;3.70;;;1.80;;
22388;SDS011;11362;48.102;11.620;2024-01-15T05:13:15;1.63;;;1.53;;
22388;SDS011;11362;48.102;11.620;2024-01-15T05:15:40;1.70;;;1.60;;
22388;SDS011;11362;48.102;11.620;2024-01-15T05:18:05;2.00;;;1.57;;
22388;SDS011;11362;48.102;11.620;2024-01-15T05:20:31;1.60;;;1.50;;
22388;SDS011;11362;48.102;11.620;2024-01-15T05:22:56;1.70;;;1.60;;
22388;SDS011;11362;48.102;11.620;2024-01-15T05:25:22;1.87;;;1.67;;
22388;SDS011;11362;48.102;11.620;2024-01-15T05:27:47;1.83;;;1.50;;
22388;SDS011;11362;48.102;11.620;2024-01-15T05:30:12;1.67;;;1.40;;
22388;SDS011;11362;48.102;11.620;2024-01-15T05:32:38;1.80;;;1.60;;
22388;SDS011;11362;48.102;11.620;2024-01-15T05:35:03;3.20;;;1.77;;
22388;SDS011;11362;48.102;11.620;2024-01-15T05:37:29;1.60;;;1.60;;
22388;SDS011;11362;48.102;11.620;2024-01-15T05:39:54;1.60;;;1.50;;
22388;SDS011;11362;48.102;11.620;2024-01-15T05:42:19;1.37;;;1.30;;
22388;SDS011;11362;48.102;11.620;2024-01-15T05:44:45;1.30;;;1.20;;
22388;SDS011;11362;48.102;11.620;2024-01-15T05:47:10;1.60;;;1.50;;
22388;SDS011;11362;48.102;11.620;2024-01-15T05:49:35;2.13;;;1.47;;
22388;SDS011;11362;48.102;11.620;2024-01-15T05:52:01;1.17;;;1.07;;
22388;SDS011;11362;48.102;11.620;2024-01-15T05:54:26;2.60;;;1.40;;
22388;SDS011;11362;48.102;11.620;2024-01-15T05:56:51;1.47;;;1.47;;
22388;SDS011;11362;48.102;11.620;2024-01-15T05:59:16;1.40;;;1.30;;
22388;SDS011;11362;48.102;11.620;2024-01-15T06:01:42;1.30;;;1.20;;
22388;SDS011;11362;48.102;11.620;2024-01-15T06:04:07;4.27;;;1.40;;
22388;SDS011;11362;48.102;11.620;2024-01-15T06:06:32;1.53;;;1.43;;
22388;SDS011;11362;48.102;11.620;2024-01-15T06:08:57;1.47;;;1.40;;
22388;SDS011;11362;48.102;11.620;2024-01-15T06:11:23;1.33;;;1.33;;
22388;SDS011;11362;48.102;11.620;2024-01-15T06:13:54;1.50;;;1.40;;
22388;SDS011;11362;48.102;11.620;2024-01-15T06:16:20;2.83;;;1.80;;
22388;SDS011;11362;48.102;11.620;2024-01-15T06:18:45;2.07;;;1.47;;
22388;SDS011;11362;48.102;11.620;2024-01-15T06:21:11;6.03;;;1.73;;
22388;SDS011;11362;48.102;11.620;2024-01-15T06:23:36;6.50;;;2.10;;
22388;SDS011;11362;48.102;11.620;2024-01-15T06:26:02;2.70;;;1.97;;
22388;SDS011;11362;48.102;11.620;2024-01-15T06:28:27;4.40;;;2.03;;
22388;SDS011;11362;48.102;11.620;2024-01-15T06:30:53;6.80;;;2.00;;
22388;SDS011;11362;48.102;11.620;2024-01-15T06:33:18;8.53;;;2.27;;
22388;SDS011;11362;48.102;11.620;2024-01-15T06:35:43;8.37;;;2.27;;
22388;SDS011;11362;48.102;11.620;2024-01-15T06:38:09;12.90;;;2.23;;
22388;SDS011;11362;48.102;11.620;2024-01-15T06:40:34;6.90;;;1.90;;
22388;SDS011;11362;48.102;11.620;2024-01-15T06:42:59;11.73;;;2.50;;
22388;SDS011;11362;48.102;11.620;2024-01-15T06:45:25;14.57;;;2.43;;
22388;SDS011;11362;48.102;11.620;2024-01-15T06:47:50;12.90;;;2.30;;
22388;SDS011;11362;48.102;11.620;2024-01-15T06:50:15;8.47;;;3.23;;
22388;SDS011;11362;48.102;11.620;2024-01-15T06:52:41;16.53;;;2.80;;
22388;SDS011;11362;48.102;11.620;2024-01-15T06:55:06;8.50;;;2.00;;
22388;SDS011;11362;48.102;11.620;2024-01-15T06:57:32;13.00;;;3.00;;
22388;SDS011;11362;48.102;11.620;2024-01-15T06:59:57;9.43;;;3.13;;
22388;SDS011;11362;48.102;11.620;2024-01-15T07:02:23;7.97;;;2.30;;
22388;SDS011;11362;48.102;11.620;2024-01-15T07:04:48;6.47;;;2.17;;
22388;SDS011;11362;48.102;11.620;2024-01-15T07:07:13;12.93;;;3.20;;
22388;SDS011;11362;48.102;11.620;2024-01-15T07:09:38;13.00;;;3.00;;
22388;SDS011;11362;48.102;11.620;2024-01-15T07:12:04;12.67;;;3.10;;
22388;SDS011;11362;48.102;11.620;2024-01-15T07:14:29;9.03;;;2.53;;
22388;SDS011;11362;48.102;11.620;2024-01-15T07:16:54;6.13;;;2.80;;
22388;SDS011;11362;48.102;11.620;2024-01-15T07:19:20;8.90;;;2.80;;
22388;SDS011;11362;48.102;11.620;2024-01-15T07:21:45;10.43;;;2.63;;
22388;SDS011;11362;48.102;11.620;2024-01-15T07:24:10;5.73;;;2.63;;
22388;SDS011;11362;48.102;11.620;2024-01-15T07:26:36;8.10;;;2.50;;
22388;SDS011;11362;48.102;11.620;2024-01-15T07:29:01;7.40;;;2.30;;
22388;SDS011;11362;48.102;11.620;2024-01-15T07:31:26;8.27;;;2.97;;
22388;SDS011;11362;48.102;11.620;2024-01-15T07:33:52;11.40;;;2.93;;
22388;SDS011;11362;48.102;11.620;2024-01-15T07:36:20;7.20;;;2.53;;
22388;SDS011;11362;48.102;11.620;2024-01-15T07:38:45;9.17;;;2.40;;
22388;SDS011;11362;48.102;11.620;2024-01-15T07:41:13;6.27;;;2.40;;
22388;SDS011;11362;48.102;11.620;2024-01-15T07:43:38;5.87;;;2.23;;
22388;SDS011;11362;48.102;11.620;2024-01-15T07:46:04;5.63;;;2.27;;
22388;SDS011;11362;48.102;11.620;2024-01-15T07:48:29;11.47;;;2.93;;
22388;SDS011;11362;48.102;11.620;2024-01-15T07:50:54;5.40;;;2.27;;
22388;SDS011;11362;48.102;11.620;2024-01-15T07:53:20;5.37;;;2.40;;
22388;SDS011;11362;48.102;11.620;2024-01-15T07:55:45;6.07;;;2.20;;
22388;SDS011;11362;48.102;11.620;2024-01-15T07:58:10;6.70;;;2.43;;
22388;SDS011;11362;48.102;11.620;2024-01-15T08:00:36;7.07;;;2.00;;
22388;SDS011;11362;48.102;11.620;2024-01-15T08:03:01;6.60;;;2.40;;
22388;SDS011;11362;48.102;11.620;2024-01-15T08:05:26;5.83;;;2.30;;
22388;SDS011;11362;48.102;11.620;2024-01-15T08:07:52;7.10;;;1.90;;
22388;SDS011;11362;48.102;11.620;2024-01-15T08:10:17;5.97;;;1.83;;
22388;SDS011;11362;48.102;11.620;2024-01-15T08:12:42;2.93;;;1.77;;
22388;SDS011;11362;48.102;11.620;2024-01-15T08:15:08;7.83;;;2.33;;
22388;SDS011;11362;48.102;11.620;2024-01-15T08:17:33;5.07;;;2.57;;
22388;SDS011;11362;48.102;11.620;2024-01-15T08:19:58;3.97;;;1.90;;
22388;SDS011;11362;48.102;11.620;2024-01-15T08:22:24;4.20;;;2.33;;
22388;SDS011;11362;48.102;11.620;2024-01-15T08:24:49;7.17;;;1.90;;
22388;SDS011;11362;48.102;11.620;2024-01-15T08:27:14;5.17;;;2.10;;
22388;SDS011;11362;48.102;11.620;2024-01-15T08:29:39;3.00;;;1.90;;
22388;SDS011;11362;48.102;11.620;2024-01-15T08:32:05;6.03;;;2.00;;
22388;SDS011;11362;48.102;11.620;2024-01-15T08:34:30;5.43;;;1.90;;
22388;SDS011;11362;48.102;11.620;2024-01-15T08:36:55;4.57;;;2.10;;
22388;SDS011;11362;48.102;11.620;2024-01-15T08:39:21;2.63;;;1.80;;
22388;SDS011;11362;48.102;11.620;2024-01-15T08:41:46;4.20;;;1.83;;
22388;SDS011;11362;48.102;11.620;2024-01-15T08:44:12;5.10;;;1.87;;
22388;SDS011;11362;48.102;11.620;2024-01-15T08:46:37;7.23;;;1.73;;
22388;SDS011;11362;48.102;11.620;2024-01-15T08:49:02;2.50;;;2.20;;
22388;SDS011;11362;48.102;11.620;2024-01-15T08:51:28;2.27;;;1.60;;
22388;SDS011;11362;48.102;11.620;2024-01-15T08:53:54;2.23;;;1.50;;
22388;SDS011;11362;48.102;11.620;2024-01-15T08:56:21;4.40;;;2.27;;
22388;SDS011;11362;48.102;11.620;2024-01-15T08:58:46;1.60;;;1.50;;
22388;SDS011;11362;48.102;11.620;2024-01-15T09:01:12;2.13;;;1.70;;
22388;SDS011;11362;48.102;11.620;2024-01-15T09:03:37;2.10;;;1.83;;
22388;SDS011;11362;48.102;11.620;2024-01-15T09:06:02;2.80;;;2.27;;
22388;SDS011;11362;48.102;11.620;2024-01-15T09:08:28;2.53;;;1.60;;
22388;SDS011;11362;48.102;11.620;2024-01-15T09:10:53;2.87;;;1.60;;
22388;SDS011;11362;48.102;11.620;2024-01-15T09:13:19;2.53;;;1.70;;
22388;SDS011;11362;48.102;11.620;2024-01-15T09:15:44;2.40;;;1.37;;
22388;SDS011;11362;48.102;11.620;2024-01-15T09:18:09;2.40;;;1.57;;
22388;SDS011;11362;48.102;11.620;2024-01-15T09:20:35;2.60;;;1.73;;
22388;SDS011;11362;48.102;11.620;2024-01-15T09:23:00;2.20;;;1.50;;
22388;SDS011;11362;48.102;11.620;2024-01-15T09:25:26;1.53;;;1.33;;
22388;SDS011;11362;48.102;11.620;2024-01-15T09:27:51;1.40;;;1.40;;
22388;SDS011;11362;48.102;11.620;2024-01-15T09:30:16;2.33;;;1.50;;
22388;SDS011;11362;48.102;11.620;2024-01-15T09:32:42;3.70;;;1.53;;
22388;SDS011;11362;48.102;11.620;2024-01-15T09:35:07;4.00;;;1.40;;
22388;SDS011;11362;48.102;11.620;2024-01-15T09:37:34;2.03;;;1.90;;
22388;SDS011;11362;48.102;11.620;2024-01-15T09:39:59;3.17;;;1.73;;
22388;SDS011;11362;48.102;11.620;2024-01-15T09:42:25;4.43;;;1.63;;
22388;SDS011;11362;48.102;11.620;2024-01-15T09:44:51;2.23;;;1.77;;
22388;SDS011;11362;48.102;11.620;2024-01-15T09:47:16;1.67;;;1.57;;
22388;SDS011;11362;48.102;11.620;2024-01-15T09:49:42;4.70;;;1.70;;
22388;SDS011;11362;48.102;11.620;2024-01-15T09:52:08;5.93;;;2.30;;
22388;SDS011;11362;48.102;11.620;2024-01-15T09:54:35;2.30;;;1.63;;
22388;SDS011;11362;48.102;11.620;2024-01-15T09:57:01;6.53;;;1.77;;
22388;SDS011;11362;48.102;11.620;2024-01-15T09:59:27;4.13;;;1.53;;
22388;SDS011;11362;48.102;11.620;2024-01-15T10:01:53;1.80;;;1.47;;
22388;SDS011;11362;48.102;11.620;2024-01-15T10:04:19;3.73;;;1.70;;
22388;SDS011;11362;48.102;11.620;2024-01-15T10:06:45;5.80;;;1.90;;
22388;SDS011;11362;48.102;11.620;2024-01-15T10:09:12;8.57;;;1.60;;
22388;SDS011;11362;48.102;11.620;2024-01-15T10:11:38;2.30;;;1.70;;
22388;SDS011;11362;48.102;11.620;2024-01-15T10:14:04;3.47;;;2.00;;
22388;SDS011;11362;48.102;11.620;2024-01-15T10:16:30;2.57;;;1.50;;
22388;SDS011;11362;48.102;11.620;2024-01-15T10:18:55;3.27;;;1.70;;
22388;SDS011;11362;48.102;11.620;2024-01-15T10:21:20;4.70;;;2.10;;
22388;SDS011;11362;48.102;11.620;2024-01-15T10:23:45;1.53;;;1.43;;
22388;SDS011;11362;48.102;11.620;2024-01-15T10:26:11;1.50;;;1.40;;
22388;SDS011;11362;48.102;11.620;2024-01-15T10:28:37;4.43;;;1.40;;
22388;SDS011;11362;48.102;11.620;2024-01-15T10:31:02;2.13;;;1.07;;
22388;SDS011;11362;48.102;11.620;2024-01-15T10:33:27;1.67;;;1.37;;
22388;SDS011;11362;48.102;11.620;2024-01-15T10:35:53;2.10;;;1.30;;
22388;SDS011;11362;48.102;11.620;2024-01-15T10:38:20;1.27;;;1.17;;
22388;SDS011;11362;48.102;11.620;2024-01-15T10:40:46;6.93;;;2.00;;
22388;SDS011;11362;48.102;11.620;2024-01-15T10:43:12;3.50;;;1.90;;
22388;SDS011;11362;48.102;11.620;2024-01-15T10:45:37;1.60;;;1.47;;
22388;SDS011;11362;48.102;11.620;2024-01-15T10:48:03;5.40;;;2.13;;
22388;SDS011;11362;48.102;11.620;2024-01-15T10:50:29;2.83;;;1.43;;
22388;SDS011;11362;48.102;11.620;2024-01-15T10:52:54;2.20;;;1.30;;
22388;SDS011;11362;48.102;11.620;2024-01-15T10:55:20;5.20;;;1.67;;
22388;SDS011;11362;48.102;11.620;2024-01-15T10:57:48;10.30;;;1.80;;
22388;SDS011;11362;48.102;11.620;2024-01-15T11:00:14;2.93;;;1.40;;
22388;SDS011;11362;48.102;11.620;2024-01-15T11:02:40;6.23;;;1.60;;
22388;SDS011;11362;48.102;11.620;2024-01-15T11:05:05;5.67;;;1.77;;
22388;SDS011;11362;48.102;11.620;2024-01-15T11:07:31;6.03;;;1.70;;
22388;SDS011;11362;48.102;11.620;2024-01-15T11:09:56;5.70;;;1.53;;
22388;SDS011;11362;48.102;11.620;2024-01-15T11:12:22;5.33;;;1.73;;
22388;SDS011;11362;48.102;11.620;2024-01-15T11:14:48;4.30;;;1.40;;
22388;SDS011;11362;48.102;11.620;2024-01-15T11:17:15;4.17;;;1.83;;
22388;SDS011;11362;48.102;11.620;2024-01-15T11:22:09;3.30;;;1.80;;
22388;SDS011;11362;48.102;11.620;2024-01-15T11:24:54;2.20;;;1.33;;
22388;SDS011;11362;48.102;11.620;2024-01-15T11:27:19;4.63;;;1.60;;
22388;SDS011;11362;48.102;11.620;2024-01-15T11:30:07;4.13;;;1.20;;
22388;SDS011;11362;48.102;11.620;2024-01-15T11:32:34;2.27;;;1.10;;
22388;SDS011;11362;48.102;11.620;2024-01-15T11:34:59;1.97;;;1.60;;
22388;SDS011;11362;48.102;11.620;2024-01-15T11:37:25;2.07;;;1.20;;
22388;SDS011;11362;48.102;11.620;2024-01-15T11:39:52;1.47;;;0.83;;
22388;SDS011;11362;48.102;11.620;2024-01-15T11:42:25;1.27;;;1.07;;
22388;SDS011;11362;48.102;11.620;2024-01-15T11:44:50;1.13;;;1.03;;
22388;SDS011;11362;48.102;11.620;2024-01-15T11:47:18;2.73;;;1.43;;
22388;SDS011;11362;48.102;11.620;2024-01-15T11:50:03;2.80;;;1.37;;
22388;SDS011;11362;48.102;11.620;2024-01-15T11:52:33;1.80;;;1.10;;
22388;SDS011;11362;48.102;11.620;2024-01-15T11:55:12;1.23;;;1.13;;
22388;SDS011;11362;48.102;11.620;2024-01-15T11:57:49;2.70;;;1.17;;
22388;SDS011;11362;48.102;11.620;2024-01-15T12:00:16;2.13;;;1.20;;
22388;SDS011;11362;48.102;11.620;2024-01-15T12:02:42;1.30;;;1.20;;
22388;SDS011;11362;48.102;11.620;2024-01-15T12:05:09;1.20;;;1.10;;
22388;SDS011;11362;48.102;11.620;2024-01-15T12:07:35;2.60;;;1.40;;
22388;SDS011;11362;48.102;11.620;2024-01-15T12:10:02;1.47;;;0.87;;
22388;SDS011;11362;48.102;11.620;2024-01-15T12:12:44;2.10;;;1.10;;
22388;SDS011;11362;48.102;11.620;2024-01-15T12:15:22;2.57;;;1.07;;
22388;SDS011;11362;48.102;11.620;2024-01-15T12:17:47;7.37;;;1.77;;
22388;SDS011;11362;48.102;11.620;2024-01-15T12:20:13;1.00;;;0.90;;
22388;SDS011;11362;48.102;11.620;2024-01-15T12:22:39;2.57;;;1.40;;
22388;SDS011;11362;48.102;11.620;2024-01-15T12:25:04;2.80;;;1.33;;
22388;SDS011;11362;48.102;11.620;2024-01-15T12:27:30;0.80;;;0.80;;
22388;SDS011;11362;48.102;11.620;2024-01-15T12:29:55;0.90;;;0.90;;
22388;SDS011;11362;48.102;11.620;2024-01-15T12:32:20;1.20;;;1.10;;
22388;SDS011;11362;48.102;11.620;2024-01-15T12:34:46;1.10;;;1.10;;
22388;SDS011;11362;48.102;11.620;2024-01-15T12:37:11;1.97;;;1.40;;
22388;SDS011;11362;48.102;11.620;2024-01-15T12:39:36;1.27;;;1.20;;
22388;SDS011;11362;48.102;11.620;2024-01-15T12:42:02;4.87;;;1.30;;
22388;SDS011;11362;48.102;11.620;2024-01-15T12:44:28;1.07;;;1.00;;
22388;SDS011;11362;48.102;11.620;2024-01-15T12:46:53;1.23;;;0.80;;
22388;SDS011;11362;48.102;11.620;2024-01-15T12:49:19;1.73;;;1.00;;
22388;SDS011;11362;48.102;11.620;2024-01-15T12:51:51;1.63;;;1.23;;
22388;SDS011;11362;48.102;11.620;2024-01-15T12:54:17;2.30;;;1.10;;
22388;SDS011;11362;48.102;11.620;2024-01-15T12:56:42;2.27;;;1.23;;
22388;SDS011;11362;48.102;11.620;2024-01-15T12:59:08;2.40;;;1.00;;
22388;SDS011;11362;48.102;11.620;2024-01-15T13:01:33;0.87;;;0.80;;
22388;SDS011;11362;48.102;11.620;2024-01-15T13:03:58;1.33;;;0.80;;
22388;SDS011;11362;48.102;11.620;2024-01-15T13:06:24;2.47;;;1.00;;
22388;SDS011;11362;48.102;11.620;2024-01-15T13:08:49;0.93;;;0.93;;
22388;SDS011;11362;48.102;11.620;2024-01-15T13:11:14;0.90;;;0.90;;
22388;SDS011;11362;48.102;11.620;2024-01-15T13:13:40;0.80;;;0.80;;
22388;SDS011;11362;48.102;11.620;2024-01-15T13:16:05;1.43;;;0.80;;
22388;SDS011;11362;48.102;11.620;2024-01-15T13:18:30;0.73;;;0.67;;
22388;SDS011;11362;48.102;11.620;2024-01-15T13:20:55;0.97;;;0.77;;
22388;SDS011;11362;48.102;11.620;2024-01-15T13:23:21;1.60;;;0.83;;
22388;SDS011;11362;48.102;11.620;2024-01-15T13:25:46;2.67;;;1.20;;
22388;SDS011;11362;48.102;11.620;2024-01-15T13:28:11;1.23;;;1.13;;
22388;SDS011;11362;48.102;11.620;2024-01-15T13:30:37;1.40;;;0.87;;
22388;SDS011;11362;48.102;11.620;2024-01-15T13:33:02;2.73;;;1.07;;
22388;SDS011;11362;48.102;11.620;2024-01-15T13:35:27;1.00;;;1.00;;
22388;SDS011;11362;48.102;11.620;2024-01-15T13:37:53;2.20;;;1.30;;
22388;SDS011;11362;48.102;11.620;2024-01-15T13:40:18;1.50;;;1.20;;
22388;SDS011;11362;48.102;11.620;2024-01-15T13:42:43;2.13;;;1.10;;
22388;SDS011;11362;48.102;11.620;2024-01-15T13:45:09;1.00;;;0.90;;
22388;SDS011;11362;48.102;11.620;2024-01-15T13:47:34;2.17;;;0.87;;
22388;SDS011;11362;48.102;11.620;2024-01-15T13:49:59;1.20;;;1.07;;
22388;SDS011;11362;48.102;11.620;2024-01-15T13:52:25;3.63;;;0.90;;
22388;SDS011;11362;48.102;11.620;2024-01-15T13:54:50;2.40;;;0.97;;
22388;SDS011;11362;48.102;11.620;2024-01-15T13:57:16;3.03;;;1.07;;
22388;SDS011;11362;48.102;11.620;2024-01-15T13:59:42;2.87;;;1.07;;
22388;SDS011;11362;48.102;11.620;2024-01-15T14:02:07;2.47;;;1.13;;
22388;SDS011;11362;48.102;11.620;2024-01-15T14:04:33;1.83;;;1.00;;
22388;SDS011;11362;48.102;11.620;2024-01-15T14:06:58;1.50;;;0.90;;
22388;SDS011;11362;48.102;11.620;2024-01-15T14:09:23;3.60;;;0.90;;
22388;SDS011;11362;48.102;11.620;2024-01-15T14:11:48;0.80;;;0.80;;
22388;SDS011;11362;48.102;11.620;2024-01-15T14:14:14;3.33;;;1.03;;
22388;SDS011;11362;48.102;11.620;2024-01-15T14:16:39;3.17;;;1.33;;
22388;SDS011;11362;48.102;11.620;2024-01-15T14:19:04;2.03;;;1.10;;
22388;SDS011;11362;48.102;11.620;2024-01-15T14:21:30;1.83;;;0.90;;
22388;SDS011;11362;48.102;11.620;2024-01-15T14:23:55;0.93;;;0.93;;
22388;SDS011;11362;48.102;11.620;2024-01-15T14:26:20;1.97;;;1.10;;